Time;durP1;ratioP1;P1;durP2;ratioP2;P2;SDS_P1;SDS_P2;PMS_P1;PMS_P2;Temp;Humidity;BMP_temperature;BMP_pressure;BME280_temperature;BME280_humidity;BME280_pressure;Samples;Min_cycle;Max_cycle;Signal;HPM_P1;HPM_P2
2023/12/03 00:01:00;;;;;;;57.00;29.98;;;;;;;7.62;91.62;98899.22;3161062;28;20055;-66
2023/12/03 00:02:32;;;;;;;55.85;30.27;;;;;;;7.64;91.50;98891.41;3159097;28;20052;-67
2023/12/03 00:04:04;;;;;;;56.63;30.73;;;;;;;7.62;91.29;98893.22;3165616;27;20062;-67
2023/12/03 00:05:36;;;;;;;57.38;30.08;;;;;;;7.61;91.63;98910.50;3171067;27;20413;-66
2023/12/03 00:07:08;;;;;;;62.05;31.35;;;;;;;7.61;91.44;98914.84;3170864;28;20059;-66
2023/12/03 00:08:40;;;;;;;65.35;32.03;;;;;;;7.59;91.37;98922.69;3170462;28;20062;-65
2023/12/03 00:10:12;;;;;;;56.60;30.25;;;;;;;7.58;91.40;98915.84;3170987;28;20061;-66
2023/12/03 00:11:44;;;;;;;58.30;31.00;;;;;;;7.56;91.46;98914.22;3169972;28;20048;-66
2023/12/03 00:13:14;;;;;;;61.03;31.45;;;;;;;7.56;91.62;98915.06;3171169;28;20796;-66
2023/12/03 00:14:46;;;;;;;67.68;32.67;;;;;;;7.55;91.53;98917.75;3170873;28;20113;-66
2023/12/03 00:16:17;;;;;;;60.88;30.92;;;;;;;7.51;91.87;98902.34;3170751;28;20116;-66
2023/12/03 00:17:51;;;;;;;57.58;31.58;;;;;;;7.56;92.07;98903.88;3171031;28;20130;-66
2023/12/03 00:19:22;;;;;;;59.65;31.73;;;;;;;7.53;91.73;98907.44;3175073;27;20048;-66
2023/12/03 00:20:53;;;;;;;67.10;31.50;;;;;;;7.52;91.85;98906.59;3170689;28;20508;-66
2023/12/03 00:22:25;;;;;;;61.55;32.00;;;;;;;7.51;91.80;98909.25;3170638;28;20050;-66
2023/12/03 00:23:56;;;;;;;67.05;32.17;;;;;;;7.49;91.64;98909.34;3170533;28;20104;-66
2023/12/03 00:25:28;;;;;;;63.20;32.78;;;;;;;7.43;92.08;98901.84;3170620;28;20545;-65
2023/12/03 00:26:58;;;;;;;65.30;33.33;;;;;;;7.48;91.96;98918.03;3170516;28;20457;-64
2023/12/03 00:28:30;;;;;;;64.18;33.20;;;;;;;7.47;91.79;98933.63;3169741;28;20062;-66
2023/12/03 00:30:01;;;;;;;61.97;32.55;;;;;;;7.45;91.93;98938.03;3166186;28;20067;-68
2023/12/03 00:31:33;;;;;;;57.50;30.92;;;;;;;7.43;92.24;98945.06;3170381;28;20044;-66
2023/12/03 00:33:05;;;;;;;65.17;33.43;;;;;;;7.39;91.95;98941.75;3172828;27;20044;-65
2023/12/03 00:34:37;;;;;;;64.95;33.47;;;;;;;7.35;92.25;98940.22;3173324;27;20313;-68
2023/12/03 00:36:09;;;;;;;66.25;32.92;;;;;;;7.36;91.94;98939.28;3168845;28;20480;-66
2023/12/03 00:37:41;;;;;;;67.43;32.50;;;;;;;7.36;91.90;98933.28;3170280;28;20130;-66
2023/12/03 00:39:11;;;;;;;68.40;34.85;;;;;;;7.28;91.93;98928.47;3170454;28;20471;-67
2023/12/03 00:40:43;;;;;;;74.10;34.22;;;;;;;7.27;92.39;98937.13;3170192;28;20087;-67
2023/12/03 00:42:14;;;;;;;64.45;32.05;;;;;;;7.31;92.17;98941.28;3170797;28;20050;-68
2023/12/03 00:43:46;;;;;;;65.82;32.33;;;;;;;7.27;91.92;98945.72;3170126;28;20048;-67
2023/12/03 00:45:16;;;;;;;63.20;32.42;;;;;;;7.23;92.00;98944.19;3170180;28;20437;-67
2023/12/03 00:46:48;;;;;;;60.10;32.33;;;;;;;7.20;92.13;98941.75;3170581;28;20137;-68
2023/12/03 00:48:21;;;;;;;68.18;33.85;;;;;;;7.25;92.35;98957.09;3171264;27;20577;-67
2023/12/03 00:49:52;;;;;;;66.32;33.20;;;;;;;6.98;92.13;98921.16;3170032;28;20056;-67
2023/12/03 00:51:24;;;;;;;65.38;32.55;;;;;;;7.24;92.13;98969.19;3170319;28;20047;-67
2023/12/03 00:52:56;;;;;;;66.43;31.98;;;;;;;7.21;91.84;98968.47;3170272;28;20074;-67
2023/12/03 00:54:26;;;;;;;58.17;31.10;;;;;;;7.23;92.16;98974.44;3170232;28;20063;-67
2023/12/03 00:55:58;;;;;;;64.50;32.60;;;;;;;7.21;91.84;98973.66;3170129;28;20121;-67
2023/12/03 00:57:30;;;;;;;71.07;33.33;;;;;;;7.20;92.10;98977.16;3169938;28;20058;-67
2023/12/03 00:59:02;;;;;;;61.10;31.88;;;;;;;7.19;92.11;98983.25;3167460;28;20047;-67
2023/12/03 01:00:33;;;;;;;63.42;31.08;;;;;;;7.17;92.21;98992.84;3167869;28;20052;-67
2023/12/03 01:02:05;;;;;;;65.40;32.08;;;;;;;7.15;92.01;98992.88;3162110;28;20126;-67
2023/12/03 01:03:37;;;;;;;61.15;30.85;;;;;;;7.14;92.03;98985.22;3169949;28;20075;-67
2023/12/03 01:05:09;;;;;;;61.38;32.00;;;;;;;7.10;92.28;98975.88;3170169;28;20051;-67
2023/12/03 01:06:40;;;;;;;64.97;32.28;;;;;;;7.09;92.32;98974.19;3169960;28;20535;-67
2023/12/03 01:08:11;;;;;;;60.90;30.75;;;;;;;7.08;92.13;98970.78;3169358;28;20058;-67
2023/12/03 01:09:42;;;;;;;63.88;29.55;;;;;;;7.11;91.99;98962.03;3169830;28;20054;-67
2023/12/03 01:11:14;;;;;;;58.75;30.42;;;;;;;7.09;92.04;98959.50;3169612;28;20136;-67
2023/12/03 01:12:45;;;;;;;64.38;30.38;;;;;;;7.09;92.40;98962.09;3170249;28;20043;-67
2023/12/03 01:14:16;;;;;;;54.42;29.48;;;;;;;7.11;92.64;98957.69;3170246;28;20047;-67
2023/12/03 01:15:48;;;;;;;58.97;29.48;;;;;;;7.12;92.42;98959.38;3170020;28;20047;-66
2023/12/03 01:17:20;;;;;;;52.65;28.80;;;;;;;7.13;92.60;98961.06;3174342;27;20100;-67
2023/12/03 01:18:52;;;;;;;52.60;28.65;;;;;;;7.15;92.38;98961.81;3169714;28;20504;-67
2023/12/03 01:20:24;;;;;;;57.28;28.67;;;;;;;7.16;92.39;98960.06;3168662;28;20051;-67
2023/12/03 01:21:55;;;;;;;55.50;28.98;;;;;;;7.17;92.48;98975.56;3169523;28;20100;-67
2023/12/03 01:23:27;;;;;;;57.97;28.25;;;;;;;7.20;92.34;98984.94;3170048;28;20048;-67
2023/12/03 01:24:57;;;;;;;51.70;28.77;;;;;;;7.21;92.53;98979.66;3169761;28;20048;-67
2023/12/03 01:26:29;;;;;;;53.30;28.92;;;;;;;7.21;92.25;98966.72;3169848;28;20051;-67
2023/12/03 01:28:00;;;;;;;56.05;28.38;;;;;;;7.22;92.25;98965.00;3170119;28;20059;-67
2023/12/03 01:29:31;;;;;;;52.55;27.33;;;;;;;7.13;92.31;98952.44;3166567;28;20383;-67
2023/12/03 01:31:02;;;;;;;51.40;27.02;;;;;;;7.23;92.60;98964.06;3168106;28;20043;-67
2023/12/03 01:32:34;;;;;;;50.28;26.83;;;;;;;7.24;92.17;98968.34;3174399;27;20441;-68
2023/12/03 01:34:07;;;;;;;50.53;26.88;;;;;;;7.21;92.22;98956.38;3170089;28;20071;-67
2023/12/03 01:35:38;;;;;;;53.65;27.85;;;;;;;7.22;92.58;98962.41;3169753;28;20062;-64
2023/12/03 01:37:10;;;;;;;52.05;27.73;;;;;;;7.23;92.14;98964.06;3169370;28;20051;-64
2023/12/03 01:38:41;;;;;;;53.70;27.05;;;;;;;7.22;92.31;98959.81;3169778;28;20055;-64
2023/12/03 01:40:13;;;;;;;50.10;26.23;;;;;;;7.20;92.50;98962.47;3169512;28;20047;-64
2023/12/03 01:41:43;;;;;;;52.75;27.80;;;;;;;7.19;92.26;98954.78;3169749;28;20055;-62
2023/12/03 01:43:15;;;;;;;52.53;27.13;;;;;;;7.20;92.59;98961.63;3169259;28;20054;-63
2023/12/03 01:44:46;;;;;;;51.65;27.15;;;;;;;7.21;92.67;98958.97;3169401;28;20039;-62
2023/12/03 01:46:18;;;;;;;55.55;27.65;;;;;;;7.22;92.36;98959.81;3173837;27;20074;-63
2023/12/03 01:47:50;;;;;;;50.65;26.83;;;;;;;7.22;92.52;98959.81;3169906;28;20043;-62
2023/12/03 01:49:22;;;;;;;47.42;25.65;;;;;;;7.23;92.05;98962.31;3169028;28;20051;-63
2023/12/03 01:50:54;;;;;;;52.75;26.77;;;;;;;7.21;92.29;98960.72;3169649;28;20514;-64
2023/12/03 01:52:25;;;;;;;54.45;27.67;;;;;;;7.20;92.46;98961.63;3165621;28;20505;-64
2023/12/03 01:53:57;;;;;;;48.33;26.42;;;;;;;7.21;92.43;98965.88;3164198;28;20043;-64
2023/12/03 01:55:28;;;;;;;50.17;27.05;;;;;;;7.20;92.30;98972.81;3164621;28;20051;-64
2023/12/03 01:57:00;;;;;;;52.55;26.30;;;;;;;7.21;92.11;98976.25;3164804;28;20048;-64
2023/12/03 01:58:32;;;;;;;46.90;25.95;;;;;;;7.21;92.21;98973.66;3163335;28;20153;-64
2023/12/03 02:00:05;;;;;;;49.72;26.30;;;;;;;7.22;92.40;98965.84;3159773;28;20048;-65
2023/12/03 02:01:36;;;;;;;51.90;25.77;;;;;;;7.23;92.41;98972.69;3160715;27;20535;-66
2023/12/03 02:03:08;;;;;;;48.38;25.67;;;;;;;7.25;92.32;98973.47;3155853;28;20067;-66
2023/12/03 02:04:41;;;;;;;46.15;24.42;;;;;;;7.25;92.08;98978.66;3163972;28;20088;-65
2023/12/03 02:06:12;;;;;;;50.67;26.10;;;;;;;7.24;92.20;98978.69;3161207;28;20051;-65
2023/12/03 02:07:43;;;;;;;50.72;25.85;;;;;;;7.25;92.11;98970.03;3153553;28;20135;-65
2023/12/03 02:09:16;;;;;;;50.88;25.00;;;;;;;7.25;92.47;98973.47;3156886;28;20528;-65
2023/12/03 02:10:47;;;;;;;46.13;25.20;;;;;;;7.26;92.37;98966.53;3155001;28;20142;-64
2023/12/03 02:12:19;;;;;;;51.17;25.08;;;;;;;7.27;92.42;98963.03;3154234;28;20542;-64
2023/12/03 02:13:50;;;;;;;45.53;25.20;;;;;;;7.29;92.61;98959.47;3151735;28;20056;-64
2023/12/03 02:15:21;;;;;;;49.22;24.70;;;;;;;7.31;92.49;98969.75;3165530;27;20142;-64
2023/12/03 02:16:52;;;;;;;45.80;24.98;;;;;;;7.33;92.51;98977.44;3165554;28;20270;-65
2023/12/03 02:18:25;;;;;;;49.45;24.13;;;;;;;7.34;92.52;98984.34;3164427;28;20508;-64
2023/12/03 02:19:57;;;;;;;47.75;24.30;;;;;;;7.32;92.40;98984.38;3164086;28;20047;-64
2023/12/03 02:21:29;;;;;;;49.83;24.92;;;;;;;7.31;92.44;98985.31;3163853;28;20078;-65
2023/12/03 02:23:02;;;;;;;46.83;25.40;;;;;;;7.32;92.29;98971.44;3164169;28;20559;-65
2023/12/03 02:24:34;;;;;;;43.50;24.70;;;;;;;7.28;92.39;98973.31;3164189;28;20055;-66
2023/12/03 02:26:05;;;;;;;54.40;26.65;;;;;;;7.31;92.78;98977.53;3163473;28;20047;-65
2023/12/03 02:27:36;;;;;;;49.15;23.88;;;;;;;7.31;92.63;98974.94;3164171;28;20463;-65
2023/12/03 02:29:07;;;;;;;48.17;25.17;;;;;;;7.32;92.68;98976.63;3161042;28;20052;-65
2023/12/03 02:30:40;;;;;;;45.95;24.95;;;;;;;7.33;92.69;98982.63;3167106;27;20052;-65
2023/12/03 02:32:11;;;;;;;43.55;22.65;;;;;;;7.33;92.57;98983.47;3163960;28;20114;-66
2023/12/03 02:33:47;;;;;;;50.63;24.80;;;;;;;7.31;92.84;98987.88;3163991;28;20131;-66
2023/12/03 02:35:18;;;;;;;46.42;24.70;;;;;;;7.27;93.07;98978.56;3163840;28;20043;-66
2023/12/03 02:36:50;;;;;;;46.88;23.70;;;;;;;7.30;93.00;98983.59;3163671;28;20142;-66
2023/12/03 02:38:22;;;;;;;45.40;24.55;;;;;;;7.30;92.99;98981.00;3164162;28;20504;-66
2023/12/03 02:39:54;;;;;;;46.97;24.35;;;;;;;7.34;93.16;98985.16;3163729;28;20062;-66
2023/12/03 02:41:25;;;;;;;46.28;25.02;;;;;;;7.33;92.96;98991.22;3163801;28;20051;-65
2023/12/03 02:42:56;;;;;;;50.97;24.80;;;;;;;7.32;92.92;98988.72;3163513;28;20050;-65
2023/12/03 02:44:27;;;;;;;51.72;26.13;;;;;;;7.28;92.68;98990.63;3165917;28;20053;-66
2023/12/03 02:45:59;;;;;;;47.35;25.27;;;;;;;7.24;92.80;98997.66;3165537;28;20101;-66
2023/12/03 02:47:30;;;;;;;43.60;24.20;;;;;;;7.19;92.83;98985.84;3164059;28;20051;-65
2023/12/03 02:49:02;;;;;;;49.65;25.25;;;;;;;7.21;92.74;98992.63;3164230;28;20058;-67
2023/12/03 02:50:32;;;;;;;49.92;25.90;;;;;;;7.21;92.55;98996.97;3164120;28;20222;-66
2023/12/03 02:52:05;;;;;;;47.58;25.75;;;;;;;7.13;92.50;98986.09;3164062;28;20504;-66
2023/12/03 02:53:37;;;;;;;48.40;26.50;;;;;;;7.21;92.46;99007.31;3164177;28;20101;-66
2023/12/03 02:55:10;;;;;;;48.42;25.77;;;;;;;7.19;92.77;98998.81;3166510;28;20048;-67
2023/12/03 02:56:42;;;;;;;47.15;24.83;;;;;;;7.18;92.42;98999.69;3166603;28;20436;-67
2023/12/03 02:58:13;;;;;;;52.25;25.55;;;;;;;7.16;92.29;99001.50;3166635;28;20055;-67
2023/12/03 02:59:45;;;;;;;52.15;24.88;;;;;;;7.12;92.28;99000.78;3164082;27;20125;-67
2023/12/03 03:01:16;;;;;;;44.95;25.00;;;;;;;7.15;92.57;99010.19;3163571;28;20051;-66
2023/12/03 03:02:48;;;;;;;51.05;25.38;;;;;;;7.15;92.33;99016.19;3166435;28;20051;-67
2023/12/03 03:04:19;;;;;;;49.13;24.80;;;;;;;7.11;91.98;99009.47;3166144;28;20116;-66
2023/12/03 03:05:51;;;;;;;49.97;25.08;;;;;;;7.03;91.98;98996.84;3166666;28;20143;-66
2023/12/03 03:07:22;;;;;;;46.75;24.75;;;;;;;7.12;91.72;99007.72;3166679;28;20064;-67
2023/12/03 03:08:55;;;;;;;48.58;25.00;;;;;;;7.11;92.01;99016.41;3166224;28;20059;-67
2023/12/03 03:10:27;;;;;;;49.20;24.88;;;;;;;7.09;91.99;99015.63;3166463;28;20047;-67
2023/12/03 03:11:58;;;;;;;47.15;24.75;;;;;;;7.07;91.93;99019.13;3165922;28;20047;-66
2023/12/03 03:13:30;;;;;;;43.80;24.02;;;;;;;7.07;91.54;99029.50;3165546;27;20044;-66
2023/12/03 03:15:00;;;;;;;43.03;23.65;;;;;;;7.05;91.59;99023.53;3163674;28;20108;-66
2023/12/03 03:16:32;;;;;;;48.33;24.75;;;;;;;7.04;91.69;99016.69;3166222;28;20048;-66
2023/12/03 03:18:03;;;;;;;47.13;23.25;;;;;;;7.03;91.77;99020.16;3167726;27;20044;-65
2023/12/03 03:19:35;;;;;;;48.92;23.80;;;;;;;7.03;91.96;99027.91;3163044;28;20113;-65
2023/12/03 03:21:06;;;;;;;57.03;25.08;;;;;;;7.02;91.95;99018.47;3166245;28;20098;-66
2023/12/03 03:22:38;;;;;;;47.08;23.60;;;;;;;7.01;91.92;99019.41;3174371;27;20077;-65
2023/12/03 03:24:10;;;;;;;40.47;22.40;;;;;;;7.03;91.69;99021.91;3166189;28;20062;-65
2023/12/03 03:25:42;;;;;;;41.63;22.58;;;;;;;7.03;91.83;99017.56;3168099;27;20094;-65
2023/12/03 03:27:13;;;;;;;44.50;22.42;;;;;;;7.01;91.68;99016.81;3168847;27;20055;-66
2023/12/03 03:28:45;;;;;;;39.97;20.33;;;;;;;7.01;91.66;99024.59;3169174;27;20516;-65
2023/12/03 03:30:16;;;;;;;38.13;20.48;;;;;;;7.00;92.13;99022.88;3161320;28;20594;-65
2023/12/03 03:31:48;;;;;;;37.72;21.42;;;;;;;7.02;92.22;99025.41;3166249;28;20134;-65
2023/12/03 03:33:20;;;;;;;41.10;20.67;;;;;;;7.01;91.84;99029.75;3166260;28;20047;-65
2023/12/03 03:34:50;;;;;;;39.00;20.60;;;;;;;7.03;92.18;99029.69;3166061;28;20422;-65
2023/12/03 03:36:22;;;;;;;44.67;20.95;;;;;;;7.04;92.15;99026.19;3167662;27;20059;-65
2023/12/03 03:37:53;;;;;;;38.42;20.83;;;;;;;7.04;92.00;99032.22;3165822;28;20086;-67
2023/12/03 03:39:26;;;;;;;37.17;19.77;;;;;;;7.06;91.80;99030.38;3165898;28;20326;-66
2023/12/03 03:40:57;;;;;;;37.22;20.83;;;;;;;7.04;91.87;99029.63;3165774;28;20055;-66
2023/12/03 03:42:30;;;;;;;38.20;20.35;;;;;;;7.06;91.89;99032.97;3166136;28;20189;-66
2023/12/03 03:44:01;;;;;;;36.80;19.97;;;;;;;7.06;91.80;99029.53;3173789;27;20548;-65
2023/12/03 03:45:32;;;;;;;39.90;20.15;;;;;;;7.03;92.03;99020.16;3170970;28;20302;-65
2023/12/03 03:47:03;;;;;;;38.03;20.13;;;;;;;7.07;92.03;99029.50;3171408;28;20048;-66
2023/12/03 03:48:35;;;;;;;39.55;20.02;;;;;;;7.08;91.78;99032.91;3171086;28;20060;-66
2023/12/03 03:50:06;;;;;;;34.28;18.63;;;;;;;7.09;91.81;99033.75;3170754;28;20043;-67
2023/12/03 03:51:38;;;;;;;37.60;19.63;;;;;;;7.09;92.06;99036.34;3171146;28;20055;-66
2023/12/03 03:53:09;;;;;;;42.72;19.35;;;;;;;7.09;91.90;99036.34;3171172;28;20271;-67
2023/12/03 03:54:42;;;;;;;38.22;18.45;;;;;;;7.10;91.80;99040.59;3171168;28;20059;-67
2023/12/03 03:56:15;;;;;;;43.78;21.10;;;;;;;7.09;91.83;99039.75;3169633;28;20052;-67
2023/12/03 03:57:47;;;;;;;31.83;17.33;;;;;;;7.07;91.96;99031.25;3174935;27;20070;-66
2023/12/03 03:59:17;;;;;;;36.53;19.58;;;;;;;7.06;91.87;99030.38;3166492;28;20062;-66
2023/12/03 04:00:49;;;;;;;36.72;18.52;;;;;;;7.05;92.02;99026.13;3168682;28;20476;-66
2023/12/03 04:02:20;;;;;;;34.70;19.13;;;;;;;7.04;91.81;99024.44;3167887;28;20052;-66
2023/12/03 04:03:52;;;;;;;38.38;18.77;;;;;;;7.04;92.02;99029.63;3169179;28;20044;-66
2023/12/03 04:05:23;;;;;;;34.72;18.85;;;;;;;7.06;92.15;99035.56;3170876;28;20091;-66
2023/12/03 04:06:54;;;;;;;38.05;19.42;;;;;;;7.06;91.65;99030.38;3170491;28;20495;-66
2023/12/03 04:08:26;;;;;;;41.47;23.13;;;;;;;7.06;91.97;99030.38;3170692;28;20056;-66
2023/12/03 04:09:58;;;;;;;39.72;22.00;;;;;;;7.09;91.41;99032.00;3171380;28;20047;-66
2023/12/03 04:11:30;;;;;;;41.05;21.13;;;;;;;6.99;91.74;99015.19;3170331;28;20048;-67
2023/12/03 04:13:00;;;;;;;37.55;19.95;;;;;;;7.10;91.52;99038.00;3173491;27;20044;-67
2023/12/03 04:14:32;;;;;;;34.67;19.40;;;;;;;7.09;91.48;99038.94;3170872;28;20047;-67
2023/12/03 04:16:03;;;;;;;42.17;20.30;;;;;;;7.11;91.34;99035.38;3171103;28;20052;-66
2023/12/03 04:17:35;;;;;;;36.92;20.15;;;;;;;7.12;91.25;99031.88;3170560;28;20512;-66
2023/12/03 04:19:06;;;;;;;35.75;19.85;;;;;;;7.13;91.48;99033.56;3171012;28;20047;-67
2023/12/03 04:20:38;;;;;;;46.00;21.98;;;;;;;7.14;91.50;99035.25;3169955;27;20062;-67
2023/12/03 04:22:09;;;;;;;37.65;20.27;;;;;;;7.15;91.12;99041.25;3169044;28;20086;-67
2023/12/03 04:23:40;;;;;;;41.17;20.77;;;;;;;7.12;91.05;99036.22;3169854;27;20122;-67
2023/12/03 04:25:12;;;;;;;44.90;21.45;;;;;;;7.15;91.27;99036.06;3169377;28;20493;-67
2023/12/03 04:26:44;;;;;;;38.72;20.70;;;;;;;7.14;91.04;99042.16;3169428;28;20049;-69
2023/12/03 04:28:15;;;;;;;41.05;19.95;;;;;;;7.15;91.32;99051.59;3169505;27;20154;-68
2023/12/03 04:29:47;;;;;;;43.72;20.83;;;;;;;7.15;90.87;99056.78;3166177;27;20067;-67
2023/12/03 04:31:19;;;;;;;38.92;21.60;;;;;;;6.83;91.17;99007.22;3169162;27;20078;-67
2023/12/03 04:32:51;;;;;;;46.03;24.05;;;;;;;7.13;91.15;99062.03;3169894;27;20047;-68
2023/12/03 04:34:22;;;;;;;47.45;24.27;;;;;;;7.15;91.34;99051.59;3169699;27;20074;-68
2023/12/03 04:35:54;;;;;;;45.22;22.50;;;;;;;7.15;90.89;99064.56;3169341;27;20473;-66
2023/12/03 04:37:25;;;;;;;43.05;22.98;;;;;;;7.14;90.83;99055.94;3170209;28;20485;-67
2023/12/03 04:38:56;;;;;;;39.90;21.98;;;;;;;7.14;90.95;99057.72;3169426;28;20051;-67
2023/12/03 04:40:29;;;;;;;49.30;22.55;;;;;;;7.15;90.99;99061.97;3168836;28;20074;-68
2023/12/03 04:42:00;;;;;;;38.35;20.85;;;;;;;7.14;90.79;99070.66;3170482;28;20051;-68
2023/12/03 04:43:32;;;;;;;39.08;19.48;;;;;;;7.15;90.87;99075.75;3172624;27;20161;-67
2023/12/03 04:45:03;;;;;;;34.22;18.75;;;;;;;7.15;90.87;99078.34;3169453;28;20051;-68
2023/12/03 04:46:39;;;;;;;31.05;18.10;;;;;;;7.16;90.65;99076.59;3169802;28;20564;-67
2023/12/03 04:48:10;;;;;;;35.08;19.10;;;;;;;7.15;90.57;99082.69;3170176;28;20051;-67
2023/12/03 04:49:41;;;;;;;33.60;17.55;;;;;;;7.15;90.63;99082.69;3169863;27;20099;-67
2023/12/03 04:51:12;;;;;;;33.15;18.17;;;;;;;7.15;90.67;99090.44;3169086;28;20056;-68
2023/12/03 04:52:44;;;;;;;39.55;20.20;;;;;;;7.15;90.64;99088.69;3168413;28;20058;-67
2023/12/03 04:54:15;;;;;;;40.05;20.33;;;;;;;7.08;90.88;99076.94;3169888;28;20059;-69
2023/12/03 04:55:48;;;;;;;36.45;19.35;;;;;;;7.18;90.87;99085.13;3169228;28;20460;-71
2023/12/03 04:57:19;;;;;;;39.05;18.80;;;;;;;7.12;90.77;99085.41;3178135;27;20059;-69
2023/12/03 04:58:51;;;;;;;31.95;17.83;;;;;;;7.13;90.73;99077.59;3168383;28;20843;-68
2023/12/03 05:00:21;;;;;;;35.63;19.45;;;;;;;7.18;90.97;99100.66;3168410;28;20075;-69
2023/12/03 05:01:53;;;;;;;35.47;18.25;;;;;;;7.19;90.84;99097.19;3169006;28;20055;-69
2023/12/03 05:03:24;;;;;;;30.70;17.13;;;;;;;7.19;91.12;99092.03;3169281;28;20355;-71
2023/12/03 05:04:55;;;;;;;37.42;17.67;;;;;;;7.07;90.93;99072.66;3169079;28;20058;-71
2023/12/03 05:06:26;;;;;;;36.53;18.17;;;;;;;7.21;91.10;99092.78;3169345;28;20055;-70
2023/12/03 05:07:58;;;;;;;36.45;17.65;;;;;;;7.19;90.82;99098.03;3170026;28;20055;-71
2023/12/03 05:09:29;;;;;;;34.40;15.40;;;;;;;7.18;90.91;99101.50;3169355;28;20054;-72
2023/12/03 05:11:05;;;;;;;31.58;14.95;;;;;;;7.23;90.92;99101.31;3167453;28;20048;-69
2023/12/03 05:12:36;;;;;;;31.70;16.15;;;;;;;7.22;91.35;99107.44;3171300;27;20515;-70
2023/12/03 05:14:08;;;;;;;36.47;16.15;;;;;;;6.54;91.16;98998.97;3170001;28;20051;-72
2023/12/03 05:15:39;;;;;;;26.25;14.43;;;;;;;7.25;91.02;99102.13;3168581;28;20100;-69
2023/12/03 05:17:10;;;;;;;24.52;13.60;;;;;;;7.24;91.28;99101.25;3168421;28;20055;-74
2023/12/03 05:18:41;;;;;;;20.85;13.10;;;;;;;6.95;90.94;99050.72;3169889;28;20444;-72
2023/12/03 05:20:13;;;;;;;21.52;13.88;;;;;;;7.26;91.00;99107.22;3156302;28;20051;-68
2023/12/03 05:21:44;;;;;;;23.73;13.77;;;;;;;7.27;90.82;99108.88;3119905;28;20426;-69
2023/12/03 05:23:15;;;;;;;24.88;13.07;;;;;;;7.26;90.87;99104.63;3105917;28;20068;-69
2023/12/03 05:24:48;;;;;;;25.73;13.13;;;;;;;7.28;90.90;99096.81;3110772;28;20383;-68
2023/12/03 05:26:20;;;;;;;27.42;12.20;;;;;;;7.28;91.16;99120.09;3111302;28;20052;-68
2023/12/03 05:27:52;;;;;;;31.45;11.77;;;;;;;7.25;90.81;99115.91;3106833;28;20050;-68
2023/12/03 05:29:24;;;;;;;25.10;12.00;;;;;;;7.24;91.05;99113.34;3102051;28;20073;-68
2023/12/03 05:30:56;;;;;;;24.02;11.32;;;;;;;7.22;91.05;99121.22;3108848;28;20200;-68
2023/12/03 05:32:27;;;;;;;24.70;11.80;;;;;;;7.24;91.17;99121.97;3107998;28;20053;-67
2023/12/03 05:33:59;;;;;;;22.48;11.10;;;;;;;7.25;90.87;99112.47;3105368;28;20080;-68
2023/12/03 05:35:29;;;;;;;26.05;11.88;;;;;;;7.26;90.90;99101.19;3107310;28;20135;-67
2023/12/03 05:37:02;;;;;;;25.25;12.68;;;;;;;7.27;90.75;99108.03;3124910;28;20046;-68
2023/12/03 05:38:33;;;;;;;26.15;11.55;;;;;;;7.27;90.85;99100.28;3105832;28;20071;-67
2023/12/03 05:40:05;;;;;;;29.90;15.98;;;;;;;7.27;90.57;99097.69;3106487;28;20064;-66
2023/12/03 05:41:39;;;;;;;27.88;15.55;;;;;;;7.21;90.61;99096.19;3109442;28;20045;-68
2023/12/03 05:43:11;;;;;;;28.17;14.68;;;;;;;7.15;90.74;99085.28;3107149;28;20491;-68
2023/12/03 05:44:43;;;;;;;31.70;16.42;;;;;;;7.17;91.06;99091.22;3093951;28;20062;-69
2023/12/03 05:46:13;;;;;;;34.65;17.45;;;;;;;7.14;90.88;99093.94;3108439;28;20065;-69
2023/12/03 05:47:45;;;;;;;32.80;17.55;;;;;;;7.13;91.16;99085.34;3109234;28;20053;-69
2023/12/03 05:49:16;;;;;;;33.38;18.13;;;;;;;7.11;90.84;99089.75;3105005;28;20407;-69
2023/12/03 05:50:48;;;;;;;33.58;18.25;;;;;;;7.13;90.81;99081.91;3108036;28;20083;-70
2023/12/03 05:52:19;;;;;;;34.53;18.55;;;;;;;7.14;90.92;99086.19;3109832;28;20046;-66
2023/12/03 05:53:50;;;;;;;32.08;17.02;;;;;;;7.15;90.59;99095.63;3108006;28;20049;-64
2023/12/03 05:55:21;;;;;;;35.65;18.17;;;;;;;7.14;90.82;99097.38;3105472;28;20053;-64
2023/12/03 05:56:54;;;;;;;34.80;17.98;;;;;;;7.16;90.53;99089.53;3117562;28;20045;-64
2023/12/03 05:58:25;;;;;;;34.90;17.50;;;;;;;7.14;90.38;99088.78;3107694;28;20053;-64
2023/12/03 05:59:57;;;;;;;29.90;17.48;;;;;;;7.14;90.26;99087.03;3100097;28;20046;-63
2023/12/03 06:01:27;;;;;;;35.15;18.42;;;;;;;7.14;90.65;99089.59;3106536;28;20069;-63
2023/12/03 06:02:59;;;;;;;31.88;18.80;;;;;;;7.12;90.35;99106.94;3117236;28;20143;-66
2023/12/03 06:04:30;;;;;;;36.97;19.58;;;;;;;7.09;90.64;99104.50;3105950;28;20056;-65
2023/12/03 06:06:02;;;;;;;42.13;18.73;;;;;;;7.10;90.35;99110.50;3106109;28;20050;-65
2023/12/03 06:07:33;;;;;;;35.10;18.30;;;;;;;7.11;90.69;99119.97;3109435;28;20057;-66
2023/12/03 06:09:05;;;;;;;37.47;20.00;;;;;;;7.12;90.53;99116.47;3112013;28;20202;-66
2023/12/03 06:10:36;;;;;;;34.58;19.10;;;;;;;7.12;90.19;99121.66;3110213;28;20140;-63
2023/12/03 06:12:09;;;;;;;42.03;20.08;;;;;;;7.13;90.57;99125.91;3113820;28;20459;-65
2023/12/03 06:13:39;;;;;;;35.30;20.58;;;;;;;7.10;90.41;99119.13;3122960;28;20050;-65
2023/12/03 06:15:11;;;;;;;37.05;20.58;;;;;;;7.13;90.50;99110.38;3105723;28;20416;-72
2023/12/03 06:16:42;;;;;;;40.92;20.77;;;;;;;7.13;90.23;99111.25;3108580;28;20049;-68
2023/12/03 06:18:15;;;;;;;33.78;19.83;;;;;;;7.12;90.36;99111.28;3125597;28;20078;-67
2023/12/03 06:19:46;;;;;;;59.35;30.63;;;;;;;7.12;90.23;99116.47;3108417;28;20133;-69
2023/12/03 06:21:17;;;;;;;44.90;25.85;;;;;;;7.12;90.54;99119.91;3164829;28;20067;-69
2023/12/03 06:22:48;;;;;;;33.40;20.17;;;;;;;7.11;90.37;99127.75;3168251;28;20412;-65
2023/12/03 06:24:20;;;;;;;40.55;19.70;;;;;;;7.13;90.69;99121.59;3168411;28;20048;-63
2023/12/03 06:25:51;;;;;;;36.20;19.20;;;;;;;7.16;90.49;99130.97;3172465;27;20059;-63
2023/12/03 06:27:24;;;;;;;39.35;20.65;;;;;;;7.18;90.56;99126.56;3168248;28;20046;-66
2023/12/03 06:28:55;;;;;;;40.00;20.33;;;;;;;7.17;90.57;99130.91;3167660;28;20051;-66
2023/12/03 06:30:26;;;;;;;36.53;18.88;;;;;;;7.16;90.39;99131.81;3163628;28;20074;-65
2023/12/03 06:31:57;;;;;;;35.83;18.38;;;;;;;7.17;90.53;99138.69;3168901;28;20052;-68
2023/12/03 06:33:29;;;;;;;40.10;19.80;;;;;;;7.16;90.68;99142.19;3168286;28;20048;-67
2023/12/03 06:35:00;;;;;;;34.65;18.58;;;;;;;7.17;90.84;99130.06;3169069;28;20043;-68
2023/12/03 06:36:31;;;;;;;40.47;19.15;;;;;;;7.18;90.80;99124.81;3169029;28;20062;-72
2023/12/03 06:38:02;;;;;;;38.67;18.70;;;;;;;7.17;90.57;99135.25;3167704;28;20134;-69
2023/12/03 06:39:34;;;;;;;37.35;18.85;;;;;;;7.17;90.46;99137.84;3169259;28;20283;-66
2023/12/03 06:41:05;;;;;;;39.20;20.45;;;;;;;7.20;90.93;99132.53;3171959;28;20043;-64
2023/12/03 06:42:38;;;;;;;40.55;21.05;;;;;;;7.22;90.71;99143.69;3168408;28;20219;-65
2023/12/03 06:44:09;;;;;;;37.47;19.92;;;;;;;7.20;90.76;99135.13;3166907;28;20040;-65
2023/12/03 06:45:40;;;;;;;37.03;18.00;;;;;;;7.26;90.85;99140.03;3168464;28;20089;-68
2023/12/03 06:47:11;;;;;;;38.70;19.27;;;;;;;7.27;90.97;99152.91;3169010;28;20129;-68
2023/12/03 06:48:43;;;;;;;31.95;17.73;;;;;;;7.25;90.97;99151.31;3167776;28;20444;-67
2023/12/03 06:50:15;;;;;;;33.83;18.55;;;;;;;7.29;91.11;99169.25;3168184;28;20069;-71
2023/12/03 06:51:46;;;;;;;36.55;19.20;;;;;;;7.31;91.07;99171.78;3168999;28;20516;-70
2023/12/03 06:53:17;;;;;;;34.38;18.38;;;;;;;7.33;90.87;99169.94;3168052;28;20058;-72
2023/12/03 06:54:48;;;;;;;39.13;19.00;;;;;;;7.16;91.02;99130.97;3165158;28;20477;-72
2023/12/03 06:56:20;;;;;;;35.17;17.20;;;;;;;7.33;90.94;99157.00;3168894;28;20102;-71
2023/12/03 06:57:52;;;;;;;32.45;17.40;;;;;;;7.39;90.98;99159.31;3168154;28;20492;-71
2023/12/03 06:59:24;;;;;;;30.88;15.80;;;;;;;7.41;90.76;99154.94;3165461;28;20052;-73
2023/12/03 07:00:54;;;;;;;29.45;17.13;;;;;;;7.45;90.88;99166.00;3166076;28;20389;-74
2023/12/03 07:02:26;;;;;;;34.03;18.05;;;;;;;7.49;91.01;99164.97;3165531;28;20060;-75
2023/12/03 07:03:57;;;;;;;38.03;19.55;;;;;;;7.49;90.88;99157.22;3166874;28;20134;-74
2023/12/03 07:05:29;;;;;;;33.30;17.67;;;;;;;7.48;90.94;99164.16;3167771;28;20893;-72